Airfield :
LOGIN :

Register | Disclaimer

   EN    FR    IT 

 










Legend :    VFR   Marginal VFR   IFR   Intensive IFR   Very Intensive IFR
Visi :
Ceiling :
>= 8 km
>= 3000ft
5 to 8 km
1000 to 3000 ft
1500m to 5 km
500 to 1000 ft
800 to 1500m
200 to 500 ft
< 800m
< 200 ft
Symbols :   Thunderstorms  Fog  Heavy snow  Heavy precipitations  Wind > 20 kt
SIGMETs :     Misc.  Thunderstorms  Icing  Turbulence  Mountain Waves  Volcanic Ashes






- Airport Elevation : 124 ft
- IATA code : NHT


EGWU - RAF Northolt

CURRENT METAR :
  • 220020Z AUTO 23007KT 9999 OVC014/// 10/08 Q0997

EXPIRED METARs :
  • 212350Z AUTO 23008KT 9999 OVC013/// 10/08 Q0998
  • 212320Z AUTO 24008KT 9999 OVC016/// 10/08 Q0998
  • 212250Z AUTO 23007KT 9999 OVC018/// 10/08 Q0998
  • 212220Z AUTO 23010KT 9999 SCT019/// OVC140/// 10/08 Q0998
  • 212150Z 24009KT 9999 SCT020 BKN150 11/08 Q0998 TEMPO SCT014 RMK WHT TEMPO GRN
  • 212120Z 24008KT 9999 BKN020 BKN150 11/08 Q0999 TEMPO SCT014 RMK WHT TEMPO GRN
  • 212050Z 24009KT 9999 BKN020 11/08 Q0999 TEMPO SCT014 RMK WHT TEMPO GRN
  • 212020Z 24012KT 9999 SCT020 BKN190 11/08 Q0999 BECMG SCT025 RMK WHT BECMG BLU

TAF TAF EGWU
Valid from the 21 at 21:00 until the 22 at 15:00 UTC


211950Z 2121/2215 25010KT 9999 FEW012
PROB30
TEMPO 2121/2203 SCT009
TEMPO 2203/2208 SCT010
PROB30
TEMPO 2203/2210 SCT006
PROB40
TEMPO 2205/2215 6000 RA SHRA
PROB30
TEMPO 2210/2215 3000 +SHGS BKN008CB



MET'MAP, your aeronautical weather chart ! - Copyright ORBIFLY December 2007 - Disclaimer

ORBIFLY MET'MAP TEAM :

Programming & Development : Alexandra Zaïnal
Original concept : Baudouin d'Aumeries
Technical & hardware support : Manuel Goepfert
Assistance : Marc-Olivier Méhu




SOURCES & CREDITS :

   NOAA